Wangaratta Aerodrome, Australia
Current Conditions -  °F | °C
As of 9:00 PM on Thursday 27 Nov 2014 (Local Time) from YMAY Reporting Station
Clear Clear  
Wind Chill: 23°   Ceiling: Unl
Heat Index: 23°   Visibility: 6mi
Dew Point:   Wind: 7mph
Humidity: 41%   Direction: 150°SSE
Pressure: 30.06"   Gusts: NA
Location:  36.42°S, 146.3°E
Report Text: YMAY 271000Z AUTO 15006KT 9999 // NCD 23/09 Q1018
Loading
Personal Weather Stations






























Interactive Weather Map New forecast layout! Learn more

10-Day Weather Forecast

Advertisements
Track Severe Weather on mobile